This demonstration page uses our WeatherBlox Daily Observations layout. Learn more.

41.55636, -103.73856

Hourly Observations for August 22, 2019

Temp ( °F °C ) Dew Point ( °F °C ) Humidity (%) Winds ( mph kmh ) Pressure ( in mb ) Visibility ( mi km ) Precip ( " mm )
12:58 am 00:58 Cloudy with Light Showers 57 14 56 13.6 97 97 S 9 15 30 1016 10 16.09344 0.02 0.508
1:58 am 01:58 Mostly Cloudy with Light Showers 58 14.3 56 13.4 94 94 S 6 9 29.97 1015 10 16.09344 0.01 0.254
2:58 am 02:58 Cloudy 58 14.6 56 13.1 91 91 S 9 15 29.94 1014 10 16.09344 0.02 0.508
3:58 am 03:58 Mostly Cloudy 58 14.3 56 13.1 93 93 SW 10 17 29.88 1012 10 16.09344 0 0
4:58 am 04:58 Clear 57 14 54 12.3 90 90 SW 9 15 29.88 1012 10 16.09344 0.01 0.254
5:58 am 05:58 Clear 58 14.3 53 11.6 84 84 SW 13 20 29.88 1012 10 16.09344 0 0
6:58 am 06:58 Sunny 56 13.4 54 12.3 93 93 SSW 7 11 29.91 1013 10 16.09344 0 0
7:58 am 07:58 Partly Cloudy 61 16.2 57 13.7 85 85 SW 8 13 29.88 1012 10 16.09344 0 0
8:58 am 08:58 Sunny 69 20.4 56 13.4 64 64 S 9 15 29.85 1011 10 16.09344 0 0
9:58 am 09:58 Sunny 72 22.3 60 15.8 67 67 S 13 20 29.88 1012 10 16.09344 0 0
10:58 am 10:58 Sunny 74 23.5 60 15.3 60 60 S 14 22 29.83 1010 10 16.09344 0 0
11:58 am 11:58 Sunny 73 22.5 62 16.6 69 69 S 18 30 29.85 1011 10 16.09344 0 0
12:58 pm 12:58 Partly Cloudy 74 23.6 63 17.3 68 68 S 20 31 29.83 1010 10 16.09344 0 0
1:58 pm 13:58 Mostly Sunny 76 24.7 65 18.3 68 68 SSE 16 26 29.8 1009 10 16.09344 0 0
2:58 pm 14:58 Mostly Sunny 79 26.2 63 17.2 58 58 SSE 18 30 29.8 1009 10 16.09344 0 0
3:58 pm 15:58 Partly Cloudy 77 24.9 63 17.1 62 62 S 9 15 29.8 1009 10 16.09344 0 0
4:58 pm 16:58 Mostly Cloudy 75 23.9 62 16.4 63 63 SSE 14 22 29.77 1008 10 16.09344 0 0
5:58 pm 17:58 Mostly Cloudy with Nearby Thunderstorms 73 22.7 62 16.8 69 69 SSE 9 15 29.8 1009 10 16.09344 0 0
6:58 pm 18:58 Mostly Cloudy with Light Thunderstorms 62 16.6 56 13.3 81 81 ESE 17 28 29.8 1009 10 16.09344 0.33 8.382
7:58 pm 19:58 Mostly Cloudy 67 19.4 49 9.4 53 53 S 22 35 29.8 1009 10 16.09344 0 0
8:58 pm 20:58 Cloudy 69 20.4 48 8.8 47 47 S 16 26 29.8 1009 10 16.09344 0 0
9:58 pm 21:58 Clear 65 18.6 48 8.9 53 53 S 12 19 29.8 1009 10 16.09344 0 0
10:58 pm 22:58 Clear 63 17.2 50 10.2 64 64 S 14 22 29.8 1009 10 16.09344 0 0
11:58 pm 23:58 Clear 61 15.9 54 12.3 79 79 S 9 15 29.8 1009 10 16.09344 0 0

Powered by AerisWeather